Terminal Aerodrome Forecast
Issued by NWS

Home | Current Version | Previous Version | Text Only | Print | Product List | Glossary On
Versions: 1 2 3 4 5 6 7 8 9 10 11 12 13 14 15
000
FTUS43 KICT 280500
TAFSLN
TAF
KSLN 280520Z 2806/2906 13007KT P6SM VCTS FEW050 OVC100CB
      TEMPO 2806/2810 -TSRA
     FM281400 18016G23KT P6SM VCTS SCT040 BKN100CB
     FM281700 18018G25KT P6SM BKN120
     FM290100 VRB05KT P6SM VCTS BKN050CB=

USA.gov is the U.S. government's official web portal to all federal, state and local government web resources and services.